Terminal Aerodrome Forecast
Issued by NWS Albuquerque, NM

Home | Current Version | Previous Version | Text Only | Print | Product List | Glossary On
Versions: 1 2 3 4 5 6 7 8 9 10 11 12 13 14 15
000
FTUS45 KABQ 291140
TAFABQ
TAF
KABQ 291140Z 2912/3012 01008KT P6SM SKC
     FM291700 20007KT P6SM FEW110
     FM292300 23010KT P6SM VCSH BKN090
      TEMPO 2923/3002 VRB20G33KT
     FM300300 08010KT P6SM SCT100 BKN150=

USA.gov is the U.S. government's official web portal to all federal, state and local government web resources and services.